This is the latest recevied weather packets stored in our database for station/object KE0QIB. If no packets are shown the sender has not sent any weather packets the latest 1 day(s).
| Time | Temp. | Humidity | Pressure | Rain* | Wind** | Luminosity | Snow |
|---|---|---|---|---|---|---|---|
| 1778076410 | 5° C | 42% | 1005.6 hPa | 0 mm | - | - | - |
| 1778075810 | 4.44° C | 41% | 1005.6 hPa | 0 mm | - | - | - |
| 1778074610 | 3.89° C | 44% | 1005.8 hPa | 0 mm | - | - | - |
| 1778073710 | 3.33° C | 47% | 1005.7 hPa | 0 mm | - | - | - |
| 1778063810 | -1.11° C | 56% | 1005.7 hPa | 0 mm | - | - | - |
| 1778056911 | 0° C | 54% | 1005.4 hPa | 0 mm | - | - | - |
| 1778056611 | 0° C | 54% | 1005.3 hPa | 0 mm | - | - | - |
| 1778056311 | 0° C | 54% | 1005.3 hPa | 0 mm | - | - | - |
| 1778056011 | 0° C | 54% | 1005.3 hPa | 0 mm | - | - | - |
| 1778055411 | 0° C | 54% | 1005.3 hPa | 0 mm | - | - | - |
| 1778055111 | 0° C | 54% | 1005.3 hPa | 0 mm | - | - | - |
| 1778054811 | 0° C | 54% | 1005.3 hPa | 0 mm | - | - | - |
| 1778054511 | 0° C | 54% | 1005.3 hPa | 0 mm | - | - | - |
| 1778054211 | 0° C | 55% | 1005.3 hPa | 0 mm | - | - | - |
| 1778053911 | 0° C | 55% | 1005.3 hPa | 0 mm | - | - | - |
| 1778053611 | -0.56° C | 55% | 1005.3 hPa | 0 mm | - | - | - |
| 1778053311 | -0.56° C | 55% | 1005.3 hPa | 0 mm | - | - | - |
| 1778053011 | -0.56° C | 56% | 1005.3 hPa | 0 mm | - | - | - |
| 1778052711 | -0.56° C | 56% | 1005.3 hPa | 0 mm | - | - | - |
| 1778052411 | -0.56° C | 56% | 1005.3 hPa | 0 mm | - | - | - |
| 1778052111 | -0.56° C | 56% | 1005.4 hPa | 0 mm | - | - | - |
| 1778051811 | -0.56° C | 57% | 1005.4 hPa | 0 mm | - | - | - |
| 1778051511 | -0.56° C | 56% | 1005.4 hPa | 0 mm | - | - | - |
| 1778051211 | -0.56° C | 57% | 1005.4 hPa | 0 mm | - | - | - |
| 1778050911 | -0.56° C | 57% | 1005.4 hPa | 0 mm | - | - | - |
* Rain latest hour (hover to see other rain measurements)
** Current wind speed in m/s (hover to see current wind gust speed)